createdAt,value
2023-01-31T00:01:53.167Z,-1.26
2023-01-31T00:04:20.646Z,-1.25
2023-01-31T00:06:51.719Z,-1.31
2023-01-31T00:09:19.739Z,-1.21
2023-01-31T00:11:47.430Z,-1.15
2023-01-31T00:14:19.958Z,-1.03
2023-01-31T00:16:47.862Z,-1.09
2023-01-31T00:19:15.459Z,-1.07
2023-01-31T00:21:44.154Z,-1.08
2023-01-31T00:24:15.397Z,-1.04
2023-01-31T00:26:43.095Z,-1.07
2023-01-31T00:29:11.252Z,-1.29
2023-01-31T00:31:39.411Z,-1.14
2023-01-31T00:34:07.293Z,-1.18
2023-01-31T00:36:36.354Z,-1.13
2023-01-31T00:39:06.462Z,-0.99
2023-01-31T00:41:36.513Z,-0.97
2023-01-31T00:44:06.789Z,-1.02
2023-01-31T00:46:34.823Z,-1.07
2023-01-31T00:49:03.909Z,-1.07
2023-01-31T00:51:31.526Z,-1.06
2023-01-31T00:53:59.128Z,-1.07
2023-01-31T00:56:26.618Z,-1.08
2023-01-31T00:58:55.983Z,-1.05
2023-01-31T01:01:27.717Z,-1.03
2023-01-31T01:03:57.511Z,-1.03
2023-01-31T01:06:25.821Z,-0.89
2023-01-31T01:08:54.319Z,-0.96
2023-01-31T01:11:26.157Z,-1.09
2023-01-31T01:13:54.030Z,-1.16
2023-01-31T01:16:27.483Z,-1.06
2023-01-31T01:18:58.299Z,-1.14
2023-01-31T01:21:31.174Z,-1.04
2023-01-31T01:24:02.948Z,-1.08
2023-01-31T01:26:32.923Z,-1.08
2023-01-31T01:29:01.970Z,-0.97
2023-01-31T01:31:32.239Z,-0.95
2023-01-31T01:34:02.377Z,-1.01
2023-01-31T01:36:32.554Z,-0.90
2023-01-31T01:39:00.140Z,-0.91
2023-01-31T01:41:27.696Z,-0.92
2023-01-31T01:43:58.120Z,-0.92
2023-01-31T01:46:42.008Z,-0.90
2023-01-31T01:49:33.689Z,-0.93
2023-01-31T01:52:05.914Z,-1.11
2023-01-31T01:54:59.307Z,-1.12
2023-01-31T01:57:35.008Z,-1.11
2023-01-31T02:00:20.921Z,-0.94
2023-01-31T02:02:50.983Z,-0.91
2023-01-31T02:05:24.821Z,-0.87
2023-01-31T02:07:52.429Z,-0.73
2023-01-31T02:10:28.969Z,-0.84
2023-01-31T02:12:56.543Z,-0.95
2023-01-31T02:15:25.022Z,-0.83
2023-01-31T02:17:54.352Z,-0.99
2023-01-31T02:20:46.839Z,-0.87
2023-01-31T02:23:26.197Z,-1.02
2023-01-31T02:25:56.738Z,-1.05
2023-01-31T02:28:59.007Z,-1.16
2023-01-31T02:31:53.402Z,-1.01
2023-01-31T02:35:03.323Z,-0.92
2023-01-31T02:38:08.353Z,-0.84
2023-01-31T02:41:13.202Z,-0.89
2023-01-31T02:44:24.859Z,-0.96
2023-01-31T02:47:01.417Z,-0.97
2023-01-31T02:49:41.071Z,-1.04
2023-01-31T02:52:48.210Z,-1.02
2023-01-31T02:55:42.207Z,-1.09
2023-01-31T02:58:12.283Z,-1.11
2023-01-31T03:00:45.555Z,-1.15
2023-01-31T03:03:25.343Z,-1.14
2023-01-31T03:06:11.596Z,-1.11
2023-01-31T03:08:45.267Z,-1.17
2023-01-31T03:11:14.103Z,-1.13
2023-01-31T03:14:02.072Z,-1.23
2023-01-31T03:17:01.650Z,-1.18
2023-01-31T03:19:48.514Z,-1.19
2023-01-31T03:22:25.160Z,-1.18
2023-01-31T03:24:53.728Z,-1.07
2023-01-31T03:27:22.332Z,-1.19
2023-01-31T03:30:01.252Z,-1.25
2023-01-31T03:32:40.736Z,-1.42
2023-01-31T03:35:10.067Z,-1.36
2023-01-31T03:37:43.487Z,-1.46
2023-01-31T03:40:27.002Z,-1.42
2023-01-31T03:43:02.299Z,-1.43
2023-01-31T03:45:47.054Z,-1.40
2023-01-31T03:48:19.286Z,-1.49
2023-01-31T03:50:59.262Z,-1.59
2023-01-31T03:54:14.878Z,-1.48
2023-01-31T03:57:26.186Z,-1.45
2023-01-31T03:59:58.160Z,-1.59
2023-01-31T04:02:34.629Z,-1.51
2023-01-31T04:05:25.260Z,-1.48
2023-01-31T04:07:56.044Z,-1.47
2023-01-31T04:10:26.477Z,-1.72
2023-01-31T04:12:54.780Z,-1.70
2023-01-31T04:15:22.649Z,-1.66
2023-01-31T04:17:50.384Z,-1.63
2023-01-31T04:20:18.011Z,-1.62
2023-01-31T04:22:45.620Z,-1.57
2023-01-31T04:25:13.128Z,-1.67
2023-01-31T04:27:40.643Z,-1.72
2023-01-31T04:30:08.873Z,-1.90
2023-01-31T04:32:36.703Z,-1.88
2023-01-31T04:35:04.516Z,-1.91
2023-01-31T04:37:32.213Z,-1.88
2023-01-31T04:39:59.727Z,-1.77
2023-01-31T04:42:27.467Z,-1.75
2023-01-31T04:44:55.046Z,-1.65
2023-01-31T04:47:22.516Z,-1.67
2023-01-31T04:49:49.969Z,-1.75
2023-01-31T04:52:17.520Z,-1.62
2023-01-31T04:54:45.107Z,-1.54
2023-01-31T04:57:12.573Z,-1.46
2023-01-31T04:59:40.010Z,-1.31
2023-01-31T05:02:07.603Z,-1.12
2023-01-31T05:04:35.152Z,-0.90
2023-01-31T05:07:02.549Z,-0.70
2023-01-31T05:09:30.175Z,-0.51
2023-01-31T05:11:57.663Z,-0.42
2023-01-31T05:14:25.182Z,-0.38
2023-01-31T05:16:52.635Z,-0.29
2023-01-31T05:19:20.176Z,-0.23
2023-01-31T05:21:59.353Z,-0.13
2023-01-31T05:24:32.748Z,-0.07
2023-01-31T05:27:01.977Z,0.04
2023-01-31T05:29:32.762Z,-0.15
2023-01-31T05:32:02.047Z,0.01
2023-01-31T05:34:33.645Z,-0.18
2023-01-31T05:37:02.440Z,-0.12
2023-01-31T05:39:30.340Z,-0.13
2023-01-31T05:41:58.536Z,-0.15
2023-01-31T05:44:26.093Z,-0.26
2023-01-31T05:46:53.751Z,-0.26
2023-01-31T05:49:21.188Z,-0.25
2023-01-31T05:51:48.774Z,-0.19
2023-01-31T05:54:16.205Z,-0.21
2023-01-31T05:56:43.724Z,-0.12
2023-01-31T05:59:11.362Z,-0.13
2023-01-31T06:01:38.863Z,-0.09
2023-01-31T06:04:06.376Z,0.04
2023-01-31T06:06:33.909Z,0.13
2023-01-31T06:09:01.490Z,0.16
2023-01-31T06:11:29.729Z,0.28
2023-01-31T06:13:59.439Z,0.30
2023-01-31T06:16:26.999Z,0.33
2023-01-31T06:18:55.956Z,0.34
2023-01-31T06:21:23.947Z,0.38
2023-01-31T06:23:51.497Z,0.45
2023-01-31T06:26:19.209Z,0.59
2023-01-31T06:28:46.846Z,0.83
2023-01-31T06:31:14.338Z,1.19
2023-01-31T06:33:47.237Z,1.47
2023-01-31T06:36:20.767Z,1.74
2023-01-31T06:38:52.729Z,2.02
2023-01-31T06:41:20.999Z,2.29
2023-01-31T06:43:49.010Z,2.50
2023-01-31T06:46:16.501Z,2.81
2023-01-31T06:48:44.592Z,3.25
2023-01-31T06:51:12.156Z,3.51
2023-01-31T06:53:39.647Z,3.78
2023-01-31T06:56:08.106Z,4.03
2023-01-31T06:58:35.851Z,4.25
2023-01-31T07:01:12.031Z,4.56
2023-01-31T07:03:39.834Z,4.82
2023-01-31T07:06:08.240Z,4.90
2023-01-31T07:08:36.433Z,5.13
2023-01-31T07:11:05.248Z,5.20
2023-01-31T07:13:33.331Z,5.24
2023-01-31T07:16:00.908Z,5.33
2023-01-31T07:18:28.874Z,5.42
2023-01-31T07:21:00.706Z,5.55
2023-01-31T07:23:28.203Z,5.69
2023-01-31T07:25:55.798Z,5.86
2023-01-31T07:28:23.321Z,6.09
2023-01-31T07:30:52.165Z,6.23
2023-01-31T07:33:20.035Z,6.32
2023-01-31T07:35:47.616Z,6.46
2023-01-31T07:38:15.287Z,6.54
2023-01-31T07:40:42.770Z,6.46
2023-01-31T07:43:10.332Z,6.36
2023-01-31T07:45:40.111Z,6.38
2023-01-31T07:48:07.750Z,6.34
2023-01-31T07:50:35.256Z,6.20
2023-01-31T07:53:02.690Z,6.36
2023-01-31T07:55:30.743Z,6.24
2023-01-31T07:57:58.369Z,6.12
2023-01-31T08:00:44.692Z,6.09
2023-01-31T08:03:33.658Z,6.21
2023-01-31T08:06:12.961Z,5.95
2023-01-31T08:08:42.218Z,5.89
2023-01-31T08:11:09.851Z,5.49
2023-01-31T08:13:39.116Z,5.54
2023-01-31T08:16:09.494Z,5.37
2023-01-31T08:18:38.113Z,5.25
2023-01-31T08:21:07.639Z,5.18
2023-01-31T08:23:35.591Z,5.16
2023-01-31T08:26:04.559Z,5.07
2023-01-31T08:28:32.807Z,4.96
2023-01-31T08:31:08.767Z,4.96
2023-01-31T08:33:38.627Z,4.86
2023-01-31T08:36:21.164Z,4.68
2023-01-31T08:38:49.886Z,4.51
2023-01-31T08:41:19.044Z,4.51
2023-01-31T08:43:58.263Z,4.35
2023-01-31T08:46:30.639Z,4.21
2023-01-31T08:48:59.681Z,4.23
2023-01-31T08:51:27.226Z,4.15
2023-01-31T08:53:55.466Z,4.02
2023-01-31T08:56:26.375Z,4.10
2023-01-31T08:58:54.855Z,4.07
2023-01-31T09:01:23.260Z,4.05
2023-01-31T09:03:56.537Z,3.99
2023-01-31T09:06:26.228Z,4.04
2023-01-31T09:08:55.429Z,4.01
2023-01-31T09:11:22.919Z,4.07
2023-01-31T09:13:51.828Z,4.02
2023-01-31T09:16:20.179Z,4.05
2023-01-31T09:18:47.922Z,4.09
2023-01-31T09:21:18.695Z,4.04
2023-01-31T09:23:47.433Z,4.09
2023-01-31T09:26:16.034Z,4.03
2023-01-31T09:28:43.768Z,4.11
2023-01-31T09:31:17.723Z,4.22
2023-01-31T09:33:45.044Z,4.30
2023-01-31T09:36:20.894Z,4.24
2023-01-31T09:38:49.138Z,4.11
2023-01-31T09:41:24.159Z,4.10
2023-01-31T09:44:03.270Z,4.01
2023-01-31T09:46:39.790Z,3.93
2023-01-31T09:49:16.867Z,3.93
2023-01-31T09:51:53.292Z,3.84
2023-01-31T09:54:28.361Z,3.85
2023-01-31T10:00:50.714Z,3.66
2023-01-31T10:03:54.959Z,4.00
2023-01-31T10:06:33.951Z,3.75
2023-01-31T10:09:21.019Z,3.81
2023-01-31T10:11:55.371Z,3.83
2023-01-31T10:14:50.740Z,3.76
2023-01-31T10:17:21.386Z,3.86
2023-01-31T10:20:15.970Z,3.80
2023-01-31T10:23:00.681Z,3.76
2023-01-31T10:26:02.297Z,3.62
2023-01-31T10:28:45.278Z,3.44
2023-01-31T10:31:27.393Z,3.50
2023-01-31T10:34:10.372Z,3.63
2023-01-31T10:36:46.801Z,3.51
2023-01-31T10:39:38.064Z,3.53
2023-01-31T10:42:30.833Z,3.68
2023-01-31T10:45:18.455Z,3.73
2023-01-31T10:48:04.258Z,3.68
2023-01-31T10:50:52.239Z,3.60
2023-01-31T10:53:44.952Z,3.52
2023-01-31T10:56:25.271Z,3.54
2023-01-31T10:58:56.720Z,3.41
2023-01-31T11:01:24.530Z,3.30
2023-01-31T11:03:54.428Z,3.24
2023-01-31T11:06:56.391Z,3.41
2023-01-31T11:09:37.493Z,3.41
2023-01-31T11:12:07.117Z,3.33
2023-01-31T11:14:37.189Z,3.27
2023-01-31T11:17:19.063Z,3.21
2023-01-31T11:19:59.894Z,3.16
2023-01-31T11:22:36.155Z,3.16
2023-01-31T11:25:05.497Z,3.07
2023-01-31T11:27:40.995Z,3.05
2023-01-31T11:30:19.372Z,3.12
2023-01-31T11:32:47.961Z,3.09
2023-01-31T11:35:15.408Z,3.12
2023-01-31T11:38:18.661Z,3.16
2023-01-31T11:40:46.304Z,3.03
2023-01-31T11:43:19.676Z,2.99
2023-01-31T11:45:58.050Z,2.87
2023-01-31T11:48:33.529Z,2.88
2023-01-31T11:51:04.511Z,2.83
2023-01-31T11:53:49.623Z,2.86
2023-01-31T11:56:20.123Z,2.72
2023-01-31T11:58:52.837Z,2.72
2023-01-31T12:01:23.118Z,2.48
2023-01-31T12:04:03.387Z,2.67
2023-01-31T12:06:40.703Z,2.73
2023-01-31T12:09:24.377Z,2.83
2023-01-31T12:11:57.094Z,2.71
2023-01-31T12:14:35.938Z,2.60
2023-01-31T12:17:06.546Z,2.70
2023-01-31T12:19:45.762Z,2.61
2023-01-31T12:22:25.401Z,2.61
2023-01-31T12:25:11.455Z,2.59
2023-01-31T12:28:04.436Z,2.66
2023-01-31T12:31:19.253Z,2.68
2023-01-31T12:33:52.626Z,2.45
2023-01-31T12:36:34.760Z,2.39
2023-01-31T12:39:19.980Z,2.45
2023-01-31T12:41:50.546Z,2.37
2023-01-31T12:44:26.927Z,2.23
2023-01-31T12:47:11.470Z,2.22
2023-01-31T12:49:47.340Z,2.04
2023-01-31T12:52:38.702Z,2.04
2023-01-31T12:55:34.272Z,2.02
2023-01-31T12:58:42.472Z,2.23
2023-01-31T13:01:15.089Z,2.17
2023-01-31T13:04:00.835Z,2.11
2023-01-31T13:06:37.924Z,2.22
2023-01-31T13:09:11.892Z,2.09
2023-01-31T13:11:39.141Z,2.21
2023-01-31T13:14:20.681Z,2.20
2023-01-31T13:16:53.668Z,2.11
2023-01-31T13:19:38.643Z,2.16
2023-01-31T13:22:18.282Z,1.99
2023-01-31T13:24:50.216Z,1.86
2023-01-31T13:27:25.238Z,1.71
2023-01-31T13:29:59.603Z,1.57
2023-01-31T13:32:27.219Z,1.57
2023-01-31T13:34:57.721Z,1.71
2023-01-31T13:37:28.226Z,1.62
2023-01-31T13:40:02.663Z,1.70
2023-01-31T13:42:33.449Z,1.44
2023-01-31T13:45:05.776Z,1.63
2023-01-31T13:47:46.149Z,1.35
2023-01-31T13:50:43.210Z,1.59
2023-01-31T13:53:20.527Z,1.57
2023-01-31T13:55:49.948Z,1.50
2023-01-31T13:58:25.196Z,1.52
2023-01-31T14:01:08.620Z,1.59
2023-01-31T14:03:54.599Z,1.77
2023-01-31T14:06:22.019Z,1.61
2023-01-31T14:08:52.126Z,1.67
2023-01-31T14:11:22.271Z,1.86
2023-01-31T14:14:13.482Z,1.71
2023-01-31T14:16:47.464Z,1.69
2023-01-31T14:19:23.921Z,1.65
2023-01-31T14:21:58.337Z,1.63
2023-01-31T14:24:47.250Z,1.66
2023-01-31T14:27:19.354Z,1.57
2023-01-31T14:29:58.185Z,1.60
2023-01-31T14:32:31.665Z,1.60
2023-01-31T14:35:07.717Z,1.45
2023-01-31T14:38:26.656Z,1.61
2023-01-31T14:41:32.651Z,1.59
2023-01-31T14:44:11.726Z,1.58
2023-01-31T14:46:48.902Z,1.47
2023-01-31T14:49:40.650Z,1.57
2023-01-31T14:52:43.417Z,1.58
2023-01-31T14:55:33.744Z,1.63
2023-01-31T14:58:04.225Z,1.52
2023-01-31T15:00:47.088Z,1.47
2023-01-31T15:03:36.151Z,1.60
2023-01-31T15:06:09.191Z,1.58
2023-01-31T15:08:43.780Z,1.64
2023-01-31T15:11:42.236Z,1.70
2023-01-31T15:14:42.160Z,1.76
2023-01-31T15:17:33.728Z,1.75
2023-01-31T15:20:18.692Z,1.71
2023-01-31T15:22:47.837Z,1.64
2023-01-31T15:25:39.219Z,1.85
2023-01-31T15:28:08.630Z,1.60
2023-01-31T15:30:37.006Z,1.67
2023-01-31T15:33:22.659Z,1.74
2023-01-31T15:36:09.304Z,1.83
2023-01-31T15:38:57.465Z,1.94
2023-01-31T15:41:36.812Z,1.85
2023-01-31T15:44:19.157Z,1.91
2023-01-31T15:46:52.499Z,1.80
2023-01-31T15:49:39.586Z,1.84
2023-01-31T15:52:15.200Z,1.79
2023-01-31T15:54:56.957Z,1.82
2023-01-31T15:57:41.821Z,1.68
2023-01-31T16:00:19.191Z,1.78
2023-01-31T16:02:48.207Z,1.71
2023-01-31T16:05:22.561Z,1.77
2023-01-31T16:07:50.531Z,1.73
2023-01-31T16:10:18.512Z,1.77
2023-01-31T16:12:51.109Z,1.75
2023-01-31T16:15:24.311Z,1.77
2023-01-31T16:17:53.818Z,1.71
2023-01-31T16:20:53.241Z,1.84
2023-01-31T16:23:26.940Z,1.75
2023-01-31T16:26:26.445Z,1.89
2023-01-31T16:28:58.837Z,1.99
2023-01-31T16:31:34.396Z,2.14
2023-01-31T16:34:09.804Z,2.13
2023-01-31T16:36:54.050Z,2.23
2023-01-31T16:39:34.837Z,2.19
2023-01-31T16:42:05.573Z,2.14
2023-01-31T16:44:41.331Z,2.22
2023-01-31T16:47:31.217Z,2.23
2023-01-31T16:50:17.357Z,2.29
2023-01-31T16:56:14.889Z,2.10
2023-01-31T16:59:02.604Z,2.08
2023-01-31T17:01:34.698Z,1.97
2023-01-31T17:04:05.974Z,1.95
2023-01-31T17:06:34.199Z,1.92
2023-01-31T17:09:05.199Z,1.90
2023-01-31T17:11:42.638Z,1.95
2023-01-31T17:14:11.034Z,1.93
2023-01-31T17:16:38.782Z,1.77
2023-01-31T17:19:06.258Z,1.81
2023-01-31T17:21:42.079Z,1.94
2023-01-31T17:24:15.134Z,1.94
2023-01-31T17:26:42.980Z,1.92
2023-01-31T17:29:11.223Z,1.93
2023-01-31T17:31:39.715Z,1.91
2023-01-31T17:34:13.976Z,2.03
2023-01-31T17:36:41.820Z,1.96
2023-01-31T17:39:09.443Z,1.94
2023-01-31T17:41:41.427Z,2.14
2023-01-31T17:44:14.053Z,2.09
2023-01-31T17:46:43.392Z,2.11
2023-01-31T17:49:11.595Z,2.09
2023-01-31T17:51:39.449Z,2.07
2023-01-31T17:54:07.341Z,2.05
2023-01-31T17:56:35.013Z,2.05
2023-01-31T17:59:02.483Z,2.02
2023-01-31T18:01:31.091Z,2.03
2023-01-31T18:04:00.926Z,2.09
2023-01-31T18:06:28.483Z,1.94
2023-01-31T18:08:56.091Z,1.97
2023-01-31T18:11:23.579Z,1.97
2023-01-31T18:13:51.089Z,2.02
2023-01-31T18:16:21.807Z,2.05
2023-01-31T18:18:50.605Z,2.03
2023-01-31T18:21:21.769Z,2.08
2023-01-31T18:23:56.773Z,2.09
2023-01-31T18:26:25.777Z,2.17
2023-01-31T18:28:55.689Z,2.21
2023-01-31T18:31:23.413Z,2.16
2023-01-31T18:33:51.119Z,2.14
2023-01-31T18:36:21.712Z,2.31
2023-01-31T18:38:50.532Z,2.33
2023-01-31T18:41:20.397Z,2.38
2023-01-31T18:43:49.545Z,2.25
2023-01-31T18:46:17.459Z,2.18
2023-01-31T18:48:45.434Z,2.20
2023-01-31T18:51:14.893Z,2.18
2023-01-31T18:53:45.633Z,2.28
2023-01-31T18:56:16.771Z,2.40
2023-01-31T18:58:46.030Z,2.51
2023-01-31T19:01:18.201Z,2.55
2023-01-31T19:03:47.562Z,2.49
2023-01-31T19:06:18.208Z,2.51
2023-01-31T19:08:52.618Z,2.61
2023-01-31T19:11:25.074Z,2.56
2023-01-31T19:13:53.188Z,2.59
2023-01-31T19:16:29.455Z,2.65
2023-01-31T19:19:13.118Z,2.45
2023-01-31T19:21:41.203Z,2.42
2023-01-31T19:24:13.053Z,2.47
2023-01-31T19:26:44.346Z,2.49
2023-01-31T19:29:16.102Z,2.40
2023-01-31T19:31:43.997Z,2.32
2023-01-31T19:34:11.633Z,2.34
2023-01-31T19:36:41.907Z,2.38
2023-01-31T19:39:11.901Z,2.32
2023-01-31T19:41:39.384Z,2.32
2023-01-31T19:44:06.999Z,2.37
2023-01-31T19:46:36.532Z,2.37
2023-01-31T19:49:04.899Z,2.35
2023-01-31T19:51:32.847Z,2.36
2023-01-31T19:54:02.856Z,2.36
2023-01-31T19:56:32.484Z,2.36
2023-01-31T19:59:00.665Z,2.32
2023-01-31T20:01:28.167Z,2.36
2023-01-31T20:03:55.953Z,2.38
2023-01-31T20:06:25.984Z,2.28
2023-01-31T20:08:57.777Z,2.39
2023-01-31T20:11:28.065Z,2.44
2023-01-31T20:13:58.157Z,2.40
2023-01-31T20:16:26.514Z,2.36
2023-01-31T20:18:55.818Z,2.31
2023-01-31T20:21:24.000Z,2.31
2023-01-31T20:23:51.672Z,2.20
2023-01-31T20:26:21.028Z,2.24
2023-01-31T20:28:48.602Z,2.22
2023-01-31T20:31:17.094Z,2.15
2023-01-31T20:33:44.799Z,2.33
2023-01-31T20:36:12.993Z,2.29
2023-01-31T20:38:41.260Z,2.27
2023-01-31T20:41:09.547Z,2.29
2023-01-31T20:43:37.312Z,2.22
2023-01-31T20:46:10.921Z,2.29
2023-01-31T20:48:39.612Z,2.27
2023-01-31T20:51:07.459Z,2.24
2023-01-31T20:53:36.017Z,2.27
2023-01-31T20:56:10.229Z,2.33
2023-01-31T20:58:40.586Z,2.32
2023-01-31T21:01:13.558Z,2.26
2023-01-31T21:03:41.152Z,2.23
2023-01-31T21:06:09.021Z,2.27
2023-01-31T21:08:37.280Z,2.27
2023-01-31T21:11:08.195Z,2.33
2023-01-31T21:13:36.291Z,2.39
2023-01-31T21:16:06.490Z,2.31
2023-01-31T21:18:37.771Z,2.34
2023-01-31T21:21:07.629Z,2.32
2023-01-31T21:23:35.976Z,2.33
2023-01-31T21:26:05.564Z,2.38
2023-01-31T21:28:33.843Z,2.28
2023-01-31T21:31:09.008Z,2.42
2023-01-31T21:33:36.817Z,2.31
2023-01-31T21:36:12.439Z,2.48
2023-01-31T21:38:40.470Z,2.38
2023-01-31T21:41:27.885Z,2.37
2023-01-31T21:43:55.899Z,2.40
2023-01-31T21:46:24.674Z,2.45
2023-01-31T21:48:52.440Z,2.44
2023-01-31T21:51:22.631Z,2.51
2023-01-31T21:53:50.517Z,2.49
2023-01-31T21:56:20.898Z,2.54
2023-01-31T21:58:49.005Z,2.52
2023-01-31T22:01:20.831Z,2.53
2023-01-31T22:03:51.168Z,2.57
2023-01-31T22:06:21.276Z,2.59
2023-01-31T22:08:53.315Z,2.66
2023-01-31T22:11:21.756Z,2.66
2023-01-31T22:13:52.676Z,2.65
2023-01-31T22:16:22.327Z,2.66
2023-01-31T22:18:50.164Z,2.62
2023-01-31T22:21:20.365Z,2.63
2023-01-31T22:23:50.796Z,2.66
2023-01-31T22:26:27.159Z,2.70
2023-01-31T22:28:56.880Z,2.66
2023-01-31T22:31:25.531Z,2.67
2023-01-31T22:33:53.350Z,2.69
2023-01-31T22:36:21.153Z,2.73
2023-01-31T22:38:48.699Z,2.73
2023-01-31T22:41:19.870Z,2.77
2023-01-31T22:43:49.660Z,2.80
2023-01-31T22:46:20.570Z,2.80
2023-01-31T22:48:49.711Z,2.78
2023-01-31T22:51:20.195Z,2.82
2023-01-31T22:53:47.788Z,2.77
2023-01-31T22:56:17.987Z,2.76
2023-01-31T22:58:45.689Z,2.75
2023-01-31T23:01:20.225Z,2.81
2023-01-31T23:03:48.348Z,2.74
2023-01-31T23:06:17.261Z,2.70
2023-01-31T23:08:45.397Z,2.70
2023-01-31T23:11:15.536Z,2.75
2023-01-31T23:13:43.880Z,2.76
2023-01-31T23:16:17.472Z,2.79
2023-01-31T23:18:45.195Z,2.75
2023-01-31T23:21:18.968Z,2.78
2023-01-31T23:23:46.962Z,2.77
2023-01-31T23:26:14.536Z,2.75
2023-01-31T23:28:42.067Z,2.77
2023-01-31T23:31:09.604Z,2.70
2023-01-31T23:33:37.187Z,2.70
2023-01-31T23:36:05.001Z,2.75
2023-01-31T23:38:32.467Z,2.78
2023-01-31T23:40:59.996Z,2.81
2023-01-31T23:43:27.416Z,2.80
2023-01-31T23:45:54.977Z,2.82
2023-01-31T23:48:22.518Z,2.85
2023-01-31T23:50:49.995Z,2.82
2023-01-31T23:53:17.728Z,2.82
2023-01-31T23:55:45.249Z,2.81
2023-01-31T23:58:12.697Z,2.88
